Terminal Aerodrome Forecast
Issued by NWS Duluth, MN

Home | Current Version | Previous Version | Text Only | Print | Product List | Glossary Off
Versions: 1 2 3 4 5 6 7 8 9 10 11 12 13 14 15 16 17 18 19

000
FTUS43 KDLH 282300
TAFINL
TAF
KINL 282339Z 2900/2924 18004KT P6SM OVC080
     FM290200 18008KT P6SM SCT050 BKN100
     FM290900 16004KT P6SM VCSH BKN040 OVC100
     FM291500 15005KT P6SM SCT035 OVC070=

USA.gov is the U.S. government's official web portal to all federal, state and local government web resources and services.